TimeEDT,TemperatureF,Dew PointF,Humidity,Sea Level PressureIn,VisibilityMPH,Wind Direction,Wind SpeedMPH,Gust SpeedMPH,PrecipitationIn,Events,Conditions,WindDirDegrees,DateUTC
12:15 AM,71.6,71.6,100,30.09,10.0,NNE,4.6,-,0.00,,Clear,20,2012-10-25 04:15:00
12:35 AM,71.6,71.6,100,30.08,10.0,NNE,5.8,-,0.00,,Clear,20,2012-10-25 04:35:00
12:55 AM,71.6,71.6,100,30.08,10.0,NNE,5.8,-,0.00,,Clear,20,2012-10-25 04:55:00
1:15 AM,71.6,71.6,100,30.08,10.0,NNE,6.9,-,0.00,,Clear,20,2012-10-25 05:15:00
1:35 AM,71.6,71.6,100,30.08,10.0,NNE,4.6,-,0.00,,Clear,20,2012-10-25 05:35:00
1:55 AM,71.6,71.6,100,30.07,10.0,NNE,5.8,-,0.00,,Clear,20,2012-10-25 05:55:00
2:15 AM,71.6,71.6,100,30.07,10.0,NNE,6.9,-,0.00,,Clear,20,2012-10-25 06:15:00
2:35 AM,71.6,71.6,100,30.06,10.0,NNE,5.8,-,0.00,,Clear,20,2012-10-25 06:35:00
2:55 AM,71.6,71.6,100,30.05,10.0,NNE,4.6,-,0.00,,Clear,20,2012-10-25 06:55:00
3:35 AM,71.6,71.6,100,30.04,10.0,NNE,4.6,-,0.00,,Clear,20,2012-10-25 07:35:00
3:55 AM,71.6,69.8,94,30.04,10.0,NNE,6.9,-,0.00,,Clear,30,2012-10-25 07:55:00
4:15 AM,71.6,69.8,94,30.04,10.0,NNE,5.8,-,0.00,,Clear,30,2012-10-25 08:15:00
4:35 AM,71.6,69.8,94,30.04,10.0,NNE,6.9,-,0.00,,Clear,30,2012-10-25 08:35:00
4:55 AM,71.6,69.8,94,30.04,10.0,NNE,5.8,-,0.00,,Partly Cloudy,20,2012-10-25 08:55:00
5:15 AM,71.6,69.8,94,30.04,10.0,NNE,6.9,-,0.00,,Scattered Clouds,30,2012-10-25 09:15:00
5:35 AM,71.6,69.8,94,30.04,10.0,NNE,8.1,-,0.00,,Scattered Clouds,20,2012-10-25 09:35:00
5:55 AM,71.6,69.8,94,30.04,10.0,NNE,6.9,-,0.00,,Mostly Cloudy,30,2012-10-25 09:55:00
6:15 AM,71.6,69.8,94,30.05,10.0,NNE,8.1,-,0.00,,Scattered Clouds,20,2012-10-25 10:15:00
6:35 AM,71.6,69.8,94,30.05,10.0,NNE,6.9,-,0.00,,Mostly Cloudy,30,2012-10-25 10:35:00
6:50 AM,71.6,66.2,83,30.06,10.0,NNE,6.9,-,N/A,,Mostly Cloudy,30,2012-10-25 10:50:00
7:50 AM,71.6,68.0,88,30.06,10.0,NNE,6.9,-,N/A,,Scattered Clouds,30,2012-10-25 11:50:00
8:50 AM,71.6,68.0,88,30.08,10.0,NNE,6.9,-,N/A,,Scattered Clouds,30,2012-10-25 12:50:00
9:50 AM,73.4,68.0,83,30.08,10.0,NNE,6.9,-,N/A,,Mostly Cloudy,30,2012-10-25 13:50:00
10:50 AM,75.2,68.0,78,30.07,10.0,NE,11.5,19.6,N/A,,Mostly Cloudy,50,2012-10-25 14:50:00
11:50 AM,77.0,68.0,74,30.07,10.0,NE,11.5,19.6,N/A,,Scattered Clouds,50,2012-10-25 15:50:00
2:50 PM,78.8,68.0,69,30.02,8.0,ENE,11.5,20.7,N/A,,Mostly Cloudy,60,2012-10-25 18:50:00
3:50 PM,78.8,69.8,74,30.02,8.0,NE,10.4,18.4,N/A,,Partly Cloudy,50,2012-10-25 19:50:00
4:50 PM,78.8,69.8,74,30.02,9.0,NE,9.2,17.3,N/A,,Clear,40,2012-10-25 20:50:00
5:50 PM,75.2,69.8,83,30.03,10.0,NE,10.4,16.1,N/A,,Clear,40,2012-10-25 21:50:00
6:50 PM,75.2,69.8,83,30.03,10.0,NE,10.4,17.3,N/A,,Clear,40,2012-10-25 22:50:00
7:50 PM,73.4,69.8,88,30.04,10.0,NE,9.2,17.3,N/A,,Clear,40,2012-10-25 23:50:00
9:15 PM,73.4,69.8,88,30.03,10.0,NNE,9.2,-,0.00,,Scattered Clouds,30,2012-10-26 01:15:00
9:35 PM,73.4,69.8,88,30.03,10.0,NNE,8.1,16.1,0.00,,Scattered Clouds,30,2012-10-26 01:35:00
9:55 PM,73.4,69.8,88,30.03,10.0,NNE,8.1,-,0.00,,Clear,30,2012-10-26 01:55:00
10:15 PM,73.4,69.8,88,30.02,10.0,NNE,9.2,17.3,0.00,,Clear,20,2012-10-26 02:15:00
10:35 PM,73.4,69.8,88,30.03,10.0,NNE,9.2,17.3,0.00,,Clear,20,2012-10-26 02:35:00
10:55 PM,73.4,69.8,88,30.02,10.0,NNE,11.5,-,0.00,,Clear,30,2012-10-26 02:55:00
11:35 PM,73.4,69.8,88,30.01,10.0,NNE,9.2,-,0.00,,Clear,30,2012-10-26 03:35:00
11:55 PM,73.4,69.8,88,30.01,10.0,NNE,9.2,-,0.00,,Clear,20,2012-10-26 03:55:00